sensor_id;sensor_type;location;lat;lon;timestamp;pressure;altitude;pressure_sealevel;temperature;humidity
71165;BME280;58859;55.132;-1.586;2023-03-15T00:02:03;100920.28;;;1.78;100.00
71165;BME280;58859;55.132;-1.586;2023-03-15T00:04:29;100918.69;;;1.30;100.00
71165;BME280;58859;55.132;-1.586;2023-03-15T00:06:57;100923.56;;;1.50;100.00
71165;BME280;58859;55.132;-1.586;2023-03-15T00:09:23;100909.41;;;1.58;100.00
71165;BME280;58859;55.132;-1.586;2023-03-15T00:11:50;100917.13;;;2.02;100.00
71165;BME280;58859;55.132;-1.586;2023-03-15T00:14:16;100921.97;;;1.32;100.00
71165;BME280;58859;55.132;-1.586;2023-03-15T00:16:42;100916.69;;;1.50;100.00
71165;BME280;58859;55.132;-1.586;2023-03-15T00:19:09;100916.38;;;2.44;100.00
71165;BME280;58859;55.132;-1.586;2023-03-15T00:21:34;100919.34;;;2.08;100.00
71165;BME280;58859;55.132;-1.586;2023-03-15T00:23:59;100910.63;;;2.26;100.00
71165;BME280;58859;55.132;-1.586;2023-03-15T00:26:25;100924.38;;;2.68;100.00
71165;BME280;58859;55.132;-1.586;2023-03-15T00:28:50;100932.81;;;2.56;100.00
71165;BME280;58859;55.132;-1.586;2023-03-15T00:31:21;100928.44;;;2.86;100.00
71165;BME280;58859;55.132;-1.586;2023-03-15T00:33:48;100941.81;;;2.91;100.00
71165;BME280;58859;55.132;-1.586;2023-03-15T00:36:14;100937.38;;;1.16;100.00
71165;BME280;58859;55.132;-1.586;2023-03-15T00:38:41;100948.09;;;1.54;100.00
71165;BME280;58859;55.132;-1.586;2023-03-15T00:41:10;100938.41;;;2.76;100.00
71165;BME280;58859;55.132;-1.586;2023-03-15T00:43:36;100937.50;;;2.77;100.00
71165;BME280;58859;55.132;-1.586;2023-03-15T00:46:02;100924.09;;;2.44;100.00
71165;BME280;58859;55.132;-1.586;2023-03-15T00:48:28;100946.47;;;3.54;100.00
71165;BME280;58859;55.132;-1.586;2023-03-15T00:51:14;100939.38;;;2.31;100.00
71165;BME280;58859;55.132;-1.586;2023-03-15T00:53:42;100953.94;;;1.87;100.00
71165;BME280;58859;55.132;-1.586;2023-03-15T00:56:13;100946.78;;;2.22;100.00
71165;BME280;58859;55.132;-1.586;2023-03-15T00:58:39;100958.06;;;1.74;100.00
71165;BME280;58859;55.132;-1.586;2023-03-15T01:01:13;100964.25;;;1.86;100.00
71165;BME280;58859;55.132;-1.586;2023-03-15T01:03:40;100959.59;;;1.47;100.00
71165;BME280;58859;55.132;-1.586;2023-03-15T01:06:23;100955.78;;;1.69;100.00
71165;BME280;58859;55.132;-1.586;2023-03-15T01:08:49;100956.13;;;2.95;100.00
71165;BME280;58859;55.132;-1.586;2023-03-15T01:11:22;100969.00;;;1.62;100.00
71165;BME280;58859;55.132;-1.586;2023-03-15T01:13:50;100963.72;;;1.34;100.00
71165;BME280;58859;55.132;-1.586;2023-03-15T01:16:15;100981.56;;;1.35;100.00
71165;BME280;58859;55.132;-1.586;2023-03-15T01:18:42;100968.84;;;1.34;100.00
71165;BME280;58859;55.132;-1.586;2023-03-15T01:21:09;100974.31;;;0.95;100.00
71165;BME280;58859;55.132;-1.586;2023-03-15T01:23:35;100973.13;;;1.17;100.00
71165;BME280;58859;55.132;-1.586;2023-03-15T01:26:02;100977.34;;;0.86;100.00
71165;BME280;58859;55.132;-1.586;2023-03-15T01:28:28;100979.75;;;1.22;100.00
71165;BME280;58859;55.132;-1.586;2023-03-15T01:30:53;100976.03;;;0.79;100.00
71165;BME280;58859;55.132;-1.586;2023-03-15T01:33:19;100966.38;;;0.84;100.00
71165;BME280;58859;55.132;-1.586;2023-03-15T01:35:45;100972.47;;;0.81;100.00
71165;BME280;58859;55.132;-1.586;2023-03-15T01:38:11;100975.25;;;1.09;100.00
71165;BME280;58859;55.132;-1.586;2023-03-15T01:40:44;100986.19;;;0.80;100.00
71165;BME280;58859;55.132;-1.586;2023-03-15T01:43:12;100990.72;;;0.75;100.00
71165;BME280;58859;55.132;-1.586;2023-03-15T01:48:38;100990.41;;;1.30;100.00
71165;BME280;58859;55.132;-1.586;2023-03-15T01:51:18;100996.81;;;1.05;100.00
71165;BME280;58859;55.132;-1.586;2023-03-15T01:53:50;101004.38;;;1.24;100.00
71165;BME280;58859;55.132;-1.586;2023-03-15T01:56:16;101003.63;;;0.89;100.00
71165;BME280;58859;55.132;-1.586;2023-03-15T01:58:43;101002.72;;;1.23;100.00
71165;BME280;58859;55.132;-1.586;2023-03-15T02:01:10;100983.47;;;0.83;100.00
71165;BME280;58859;55.132;-1.586;2023-03-15T02:03:41;100974.19;;;0.48;100.00
71165;BME280;58859;55.132;-1.586;2023-03-15T02:06:12;100990.59;;;0.61;100.00
71165;BME280;58859;55.132;-1.586;2023-03-15T02:08:50;100983.34;;;0.69;100.00
71165;BME280;58859;55.132;-1.586;2023-03-15T02:11:18;100986.94;;;0.82;100.00
71165;BME280;58859;55.132;-1.586;2023-03-15T02:13:45;100992.75;;;0.69;100.00
71165;BME280;58859;55.132;-1.586;2023-03-15T02:16:12;101000.66;;;0.64;100.00
71165;BME280;58859;55.132;-1.586;2023-03-15T02:18:37;100999.13;;;0.77;100.00
71165;BME280;58859;55.132;-1.586;2023-03-15T02:26:41;101000.66;;;1.45;100.00
71165;BME280;58859;55.132;-1.586;2023-03-15T02:29:08;101006.19;;;0.56;100.00
71165;BME280;58859;55.132;-1.586;2023-03-15T02:31:34;100980.75;;;0.53;100.00
71165;BME280;58859;55.132;-1.586;2023-03-15T02:34:03;101005.94;;;0.94;100.00
71165;BME280;58859;55.132;-1.586;2023-03-15T02:36:30;101001.63;;;1.11;100.00
71165;BME280;58859;55.132;-1.586;2023-03-15T02:38:58;101013.28;;;0.84;100.00
71165;BME280;58859;55.132;-1.586;2023-03-15T02:41:25;101009.75;;;0.87;100.00
71165;BME280;58859;55.132;-1.586;2023-03-15T02:43:55;101016.06;;;0.80;100.00
71165;BME280;58859;55.132;-1.586;2023-03-15T02:46:23;101004.53;;;1.21;100.00
71165;BME280;58859;55.132;-1.586;2023-03-15T02:48:49;101015.41;;;1.09;100.00
71165;BME280;58859;55.132;-1.586;2023-03-15T02:51:26;101013.16;;;0.53;100.00
71165;BME280;58859;55.132;-1.586;2023-03-15T02:53:52;101013.44;;;1.14;100.00
71165;BME280;58859;55.132;-1.586;2023-03-15T02:56:18;101003.34;;;0.78;100.00
71165;BME280;58859;55.132;-1.586;2023-03-15T02:58:43;101010.28;;;0.76;100.00
71165;BME280;58859;55.132;-1.586;2023-03-15T03:01:13;101012.16;;;0.73;100.00
71165;BME280;58859;55.132;-1.586;2023-03-15T03:03:44;101013.47;;;0.97;100.00
71165;BME280;58859;55.132;-1.586;2023-03-15T03:06:10;101003.16;;;0.98;100.00
71165;BME280;58859;55.132;-1.586;2023-03-15T03:08:37;101007.00;;;0.23;100.00
71165;BME280;58859;55.132;-1.586;2023-03-15T03:11:03;100988.03;;;0.44;100.00
71165;BME280;58859;55.132;-1.586;2023-03-15T03:13:28;101003.22;;;0.30;100.00
71165;BME280;58859;55.132;-1.586;2023-03-15T03:15:54;100986.06;;;0.66;100.00
71165;BME280;58859;55.132;-1.586;2023-03-15T03:18:27;100990.13;;;0.53;100.00
71165;BME280;58859;55.132;-1.586;2023-03-15T03:20:57;100993.91;;;0.46;100.00
71165;BME280;58859;55.132;-1.586;2023-03-15T03:23:25;100986.16;;;0.47;100.00
71165;BME280;58859;55.132;-1.586;2023-03-15T03:25:55;100984.94;;;0.03;100.00
71165;BME280;58859;55.132;-1.586;2023-03-15T03:28:23;100979.31;;;0.65;100.00
71165;BME280;58859;55.132;-1.586;2023-03-15T03:30:49;100977.72;;;0.95;100.00
71165;BME280;58859;55.132;-1.586;2023-03-15T03:33:14;100977.81;;;1.88;100.00
71165;BME280;58859;55.132;-1.586;2023-03-15T03:35:40;100978.31;;;0.68;100.00
71165;BME280;58859;55.132;-1.586;2023-03-15T03:38:07;100976.50;;;0.70;100.00
71165;BME280;58859;55.132;-1.586;2023-03-15T03:40:32;100982.63;;;0.50;100.00
71165;BME280;58859;55.132;-1.586;2023-03-15T03:42:58;100982.38;;;1.04;100.00
71165;BME280;58859;55.132;-1.586;2023-03-15T03:45:23;100978.34;;;1.32;100.00
71165;BME280;58859;55.132;-1.586;2023-03-15T03:47:48;100980.88;;;2.68;100.00
71165;BME280;58859;55.132;-1.586;2023-03-15T03:50:16;100981.66;;;1.49;100.00
71165;BME280;58859;55.132;-1.586;2023-03-15T03:52:42;100985.25;;;1.92;100.00
71165;BME280;58859;55.132;-1.586;2023-03-15T03:55:09;101004.66;;;0.70;100.00
71165;BME280;58859;55.132;-1.586;2023-03-15T03:57:38;100987.53;;;1.51;100.00
71165;BME280;58859;55.132;-1.586;2023-03-15T04:00:04;100999.59;;;1.49;100.00
71165;BME280;58859;55.132;-1.586;2023-03-15T04:02:29;101001.84;;;0.57;100.00
71165;BME280;58859;55.132;-1.586;2023-03-15T04:04:55;100996.84;;;0.88;100.00
71165;BME280;58859;55.132;-1.586;2023-03-15T04:07:20;101003.69;;;1.05;100.00
71165;BME280;58859;55.132;-1.586;2023-03-15T04:09:45;100998.03;;;0.98;100.00
71165;BME280;58859;55.132;-1.586;2023-03-15T04:12:11;101006.69;;;0.46;100.00
71165;BME280;58859;55.132;-1.586;2023-03-15T04:14:36;100997.72;;;0.54;100.00
71165;BME280;58859;55.132;-1.586;2023-03-15T04:17:02;101000.28;;;0.54;100.00
71165;BME280;58859;55.132;-1.586;2023-03-15T04:19:28;100986.34;;;0.60;100.00
71165;BME280;58859;55.132;-1.586;2023-03-15T04:21:53;100990.56;;;1.27;100.00
71165;BME280;58859;55.132;-1.586;2023-03-15T04:24:19;100984.59;;;0.78;100.00
71165;BME280;58859;55.132;-1.586;2023-03-15T04:26:44;100985.19;;;0.50;100.00
71165;BME280;58859;55.132;-1.586;2023-03-15T04:29:10;100990.41;;;0.81;100.00
71165;BME280;58859;55.132;-1.586;2023-03-15T04:31:36;100990.84;;;0.89;100.00
71165;BME280;58859;55.132;-1.586;2023-03-15T04:34:03;100992.09;;;0.98;100.00
71165;BME280;58859;55.132;-1.586;2023-03-15T04:36:29;100999.53;;;1.02;100.00
71165;BME280;58859;55.132;-1.586;2023-03-15T04:38:55;100990.69;;;1.08;100.00
71165;BME280;58859;55.132;-1.586;2023-03-15T04:41:30;100988.38;;;1.03;100.00
71165;BME280;58859;55.132;-1.586;2023-03-15T04:43:56;100989.75;;;1.57;100.00
71165;BME280;58859;55.132;-1.586;2023-03-15T04:46:21;100990.38;;;1.14;100.00
71165;BME280;58859;55.132;-1.586;2023-03-15T04:48:47;100991.00;;;0.86;100.00
71165;BME280;58859;55.132;-1.586;2023-03-15T04:51:12;100985.00;;;0.70;100.00
71165;BME280;58859;55.132;-1.586;2023-03-15T04:53:37;100992.06;;;0.82;100.00
71165;BME280;58859;55.132;-1.586;2023-03-15T04:56:04;100982.63;;;0.50;100.00
71165;BME280;58859;55.132;-1.586;2023-03-15T04:58:30;100983.38;;;0.35;100.00
71165;BME280;58859;55.132;-1.586;2023-03-15T05:00:55;100976.13;;;0.43;100.00
71165;BME280;58859;55.132;-1.586;2023-03-15T05:03:21;100979.22;;;0.67;100.00
71165;BME280;58859;55.132;-1.586;2023-03-15T05:05:46;100981.03;;;0.30;100.00
71165;BME280;58859;55.132;-1.586;2023-03-15T05:08:12;100969.28;;;0.26;100.00
71165;BME280;58859;55.132;-1.586;2023-03-15T05:10:37;100972.13;;;0.72;100.00
71165;BME280;58859;55.132;-1.586;2023-03-15T05:13:02;100973.66;;;0.58;100.00
71165;BME280;58859;55.132;-1.586;2023-03-15T05:15:28;100972.44;;;0.48;100.00
71165;BME280;58859;55.132;-1.586;2023-03-15T05:17:53;100971.31;;;0.54;100.00
71165;BME280;58859;55.132;-1.586;2023-03-15T05:20:22;100967.50;;;0.45;100.00
71165;BME280;58859;55.132;-1.586;2023-03-15T05:22:47;100971.78;;;0.28;100.00
71165;BME280;58859;55.132;-1.586;2023-03-15T05:25:13;100964.72;;;0.33;100.00
71165;BME280;58859;55.132;-1.586;2023-03-15T05:27:39;100968.94;;;0.34;100.00
71165;BME280;58859;55.132;-1.586;2023-03-15T05:30:06;100962.09;;;0.84;100.00
71165;BME280;58859;55.132;-1.586;2023-03-15T05:32:33;100968.84;;;0.85;100.00
71165;BME280;58859;55.132;-1.586;2023-03-15T05:35:01;100962.63;;;1.06;100.00
71165;BME280;58859;55.132;-1.586;2023-03-15T05:37:27;100972.53;;;1.12;100.00
71165;BME280;58859;55.132;-1.586;2023-03-15T05:39:52;100964.97;;;1.27;100.00
71165;BME280;58859;55.132;-1.586;2023-03-15T05:42:18;100971.78;;;0.45;100.00
71165;BME280;58859;55.132;-1.586;2023-03-15T05:44:49;100974.25;;;0.64;100.00
71165;BME280;58859;55.132;-1.586;2023-03-15T05:47:15;100970.22;;;1.08;100.00
71165;BME280;58859;55.132;-1.586;2023-03-15T05:49:40;100974.53;;;1.07;100.00
71165;BME280;58859;55.132;-1.586;2023-03-15T05:52:05;100986.25;;;1.11;100.00
71165;BME280;58859;55.132;-1.586;2023-03-15T05:54:31;100984.03;;;0.88;100.00
71165;BME280;58859;55.132;-1.586;2023-03-15T05:56:56;100989.06;;;1.07;100.00
71165;BME280;58859;55.132;-1.586;2023-03-15T05:59:22;100993.84;;;0.47;100.00
71165;BME280;58859;55.132;-1.586;2023-03-15T06:01:47;100982.25;;;0.90;100.00
71165;BME280;58859;55.132;-1.586;2023-03-15T06:04:13;100991.97;;;0.34;100.00
71165;BME280;58859;55.132;-1.586;2023-03-15T06:06:38;100993.59;;;0.18;100.00
71165;BME280;58859;55.132;-1.586;2023-03-15T06:09:04;100996.09;;;0.19;100.00
71165;BME280;58859;55.132;-1.586;2023-03-15T06:11:29;101000.63;;;1.14;100.00
71165;BME280;58859;55.132;-1.586;2023-03-15T06:13:54;100995.81;;;1.08;100.00
71165;BME280;58859;55.132;-1.586;2023-03-15T06:16:20;100996.47;;;0.96;100.00
71165;BME280;58859;55.132;-1.586;2023-03-15T06:18:45;101002.97;;;0.69;100.00
71165;BME280;58859;55.132;-1.586;2023-03-15T06:21:10;101014.88;;;0.70;100.00
71165;BME280;58859;55.132;-1.586;2023-03-15T06:23:36;101018.94;;;1.55;100.00
71165;BME280;58859;55.132;-1.586;2023-03-15T06:26:01;101011.41;;;0.02;100.00
71165;BME280;58859;55.132;-1.586;2023-03-15T06:28:27;101025.91;;;0.02;100.00
71165;BME280;58859;55.132;-1.586;2023-03-15T06:30:52;101032.94;;;0.32;100.00
71165;BME280;58859;55.132;-1.586;2023-03-15T06:33:18;101031.88;;;-0.17;100.00
71165;BME280;58859;55.132;-1.586;2023-03-15T06:35:43;101022.75;;;-0.04;100.00
71165;BME280;58859;55.132;-1.586;2023-03-15T06:38:11;101020.16;;;1.32;100.00
71165;BME280;58859;55.132;-1.586;2023-03-15T06:40:38;101019.72;;;0.91;100.00
71165;BME280;58859;55.132;-1.586;2023-03-15T06:43:03;101016.88;;;1.46;100.00
71165;BME280;58859;55.132;-1.586;2023-03-15T06:45:31;101019.84;;;1.38;100.00
71165;BME280;58859;55.132;-1.586;2023-03-15T06:47:57;101021.25;;;1.44;100.00
71165;BME280;58859;55.132;-1.586;2023-03-15T06:50:22;101028.88;;;1.12;100.00
71165;BME280;58859;55.132;-1.586;2023-03-15T06:52:48;101019.78;;;0.06;100.00
71165;BME280;58859;55.132;-1.586;2023-03-15T06:55:13;101035.91;;;0.59;100.00
71165;BME280;58859;55.132;-1.586;2023-03-15T06:57:45;101037.88;;;1.52;100.00
71165;BME280;58859;55.132;-1.586;2023-03-15T07:00:11;101025.16;;;0.85;100.00
71165;BME280;58859;55.132;-1.586;2023-03-15T07:02:37;101022.94;;;1.12;100.00
71165;BME280;58859;55.132;-1.586;2023-03-15T07:05:03;101025.38;;;1.46;100.00
71165;BME280;58859;55.132;-1.586;2023-03-15T07:07:29;101028.53;;;1.67;100.00
71165;BME280;58859;55.132;-1.586;2023-03-15T07:09:54;101021.56;;;1.38;100.00
71165;BME280;58859;55.132;-1.586;2023-03-15T07:12:20;101021.00;;;1.48;100.00
71165;BME280;58859;55.132;-1.586;2023-03-15T07:14:45;101026.38;;;1.44;100.00
71165;BME280;58859;55.132;-1.586;2023-03-15T07:17:11;101016.59;;;0.86;100.00
71165;BME280;58859;55.132;-1.586;2023-03-15T07:19:37;101023.19;;;1.23;100.00
71165;BME280;58859;55.132;-1.586;2023-03-15T07:22:02;101021.09;;;1.62;100.00
71165;BME280;58859;55.132;-1.586;2023-03-15T07:24:28;101007.78;;;1.40;100.00
71165;BME280;58859;55.132;-1.586;2023-03-15T07:26:53;101013.53;;;1.28;100.00
71165;BME280;58859;55.132;-1.586;2023-03-15T07:29:21;101014.94;;;1.18;100.00
71165;BME280;58859;55.132;-1.586;2023-03-15T07:31:47;101010.59;;;1.36;100.00
71165;BME280;58859;55.132;-1.586;2023-03-15T07:34:13;101009.09;;;1.32;100.00
71165;BME280;58859;55.132;-1.586;2023-03-15T07:36:38;101017.41;;;3.70;100.00
71165;BME280;58859;55.132;-1.586;2023-03-15T07:39:03;101013.34;;;3.39;100.00
71165;BME280;58859;55.132;-1.586;2023-03-15T07:41:29;101020.31;;;2.37;100.00
71165;BME280;58859;55.132;-1.586;2023-03-15T07:43:55;101022.16;;;1.74;100.00
71165;BME280;58859;55.132;-1.586;2023-03-15T07:46:21;101026.47;;;2.19;100.00
71165;BME280;58859;55.132;-1.586;2023-03-15T07:48:46;101034.41;;;2.30;100.00
71165;BME280;58859;55.132;-1.586;2023-03-15T07:51:12;101027.25;;;5.81;100.00
71165;BME280;58859;55.132;-1.586;2023-03-15T07:53:37;101019.66;;;9.78;100.00
71165;BME280;58859;55.132;-1.586;2023-03-15T07:56:03;101013.16;;;7.67;100.00
71165;BME280;58859;55.132;-1.586;2023-03-15T07:58:29;101026.41;;;4.43;100.00
71165;BME280;58859;55.132;-1.586;2023-03-15T08:00:55;101022.63;;;3.83;100.00
71165;BME280;58859;55.132;-1.586;2023-03-15T08:03:21;101029.53;;;3.82;100.00
71165;BME280;58859;55.132;-1.586;2023-03-15T08:05:48;101025.44;;;3.66;100.00
71165;BME280;58859;55.132;-1.586;2023-03-15T08:08:14;101030.28;;;3.70;100.00
71165;BME280;58859;55.132;-1.586;2023-03-15T08:10:39;101022.72;;;3.12;100.00
71165;BME280;58859;55.132;-1.586;2023-03-15T08:13:04;101029.44;;;3.01;100.00
71165;BME280;58859;55.132;-1.586;2023-03-15T08:15:30;101028.31;;;3.19;100.00
71165;BME280;58859;55.132;-1.586;2023-03-15T08:17:55;100999.97;;;3.34;100.00
71165;BME280;58859;55.132;-1.586;2023-03-15T08:20:21;101020.38;;;3.64;100.00
71165;BME280;58859;55.132;-1.586;2023-03-15T08:22:47;101017.56;;;3.81;100.00
71165;BME280;58859;55.132;-1.586;2023-03-15T08:25:15;101021.91;;;3.67;100.00
71165;BME280;58859;55.132;-1.586;2023-03-15T08:27:41;101029.69;;;4.33;100.00
71165;BME280;58859;55.132;-1.586;2023-03-15T08:30:11;101023.88;;;4.69;100.00
71165;BME280;58859;55.132;-1.586;2023-03-15T08:32:41;101019.53;;;4.04;100.00
71165;BME280;58859;55.132;-1.586;2023-03-15T08:35:08;101014.84;;;4.24;100.00
71165;BME280;58859;55.132;-1.586;2023-03-15T08:37:34;101009.31;;;4.03;100.00
71165;BME280;58859;55.132;-1.586;2023-03-15T08:39:59;101016.13;;;4.43;100.00
71165;BME280;58859;55.132;-1.586;2023-03-15T08:42:34;101013.38;;;4.59;100.00
71165;BME280;58859;55.132;-1.586;2023-03-15T08:45:00;101007.38;;;4.71;100.00
71165;BME280;58859;55.132;-1.586;2023-03-15T08:47:26;101015.06;;;4.33;100.00
71165;BME280;58859;55.132;-1.586;2023-03-15T08:49:52;101020.84;;;4.37;100.00
71165;BME280;58859;55.132;-1.586;2023-03-15T08:52:21;101018.25;;;4.24;100.00
71165;BME280;58859;55.132;-1.586;2023-03-15T08:54:47;101016.78;;;4.20;100.00
71165;BME280;58859;55.132;-1.586;2023-03-15T08:57:13;101006.63;;;4.31;100.00
71165;BME280;58859;55.132;-1.586;2023-03-15T08:59:38;101004.59;;;5.12;100.00
71165;BME280;58859;55.132;-1.586;2023-03-15T09:02:04;101000.41;;;4.73;100.00
71165;BME280;58859;55.132;-1.586;2023-03-15T09:04:30;101001.53;;;4.82;100.00
71165;BME280;58859;55.132;-1.586;2023-03-15T09:06:56;101002.53;;;4.41;100.00
71165;BME280;58859;55.132;-1.586;2023-03-15T09:09:22;100981.44;;;4.10;100.00
71165;BME280;58859;55.132;-1.586;2023-03-15T09:11:47;100987.31;;;4.12;100.00
71165;BME280;58859;55.132;-1.586;2023-03-15T09:14:13;100990.19;;;4.84;100.00
71165;BME280;58859;55.132;-1.586;2023-03-15T09:16:38;100989.25;;;5.10;100.00
71165;BME280;58859;55.132;-1.586;2023-03-15T09:19:04;100973.59;;;4.76;100.00
71165;BME280;58859;55.132;-1.586;2023-03-15T09:21:29;100989.88;;;4.76;100.00
71165;BME280;58859;55.132;-1.586;2023-03-15T09:23:55;100998.34;;;4.14;100.00
71165;BME280;58859;55.132;-1.586;2023-03-15T09:26:21;101008.78;;;3.98;100.00
71165;BME280;58859;55.132;-1.586;2023-03-15T09:28:47;101011.22;;;4.26;100.00
71165;BME280;58859;55.132;-1.586;2023-03-15T09:31:12;101009.22;;;4.44;100.00
71165;BME280;58859;55.132;-1.586;2023-03-15T09:33:38;101006.88;;;4.91;100.00
71165;BME280;58859;55.132;-1.586;2023-03-15T09:36:03;101002.31;;;6.51;100.00
71165;BME280;58859;55.132;-1.586;2023-03-15T09:38:29;101005.84;;;6.15;100.00
71165;BME280;58859;55.132;-1.586;2023-03-15T09:40:57;101025.09;;;5.75;100.00
71165;BME280;58859;55.132;-1.586;2023-03-15T09:49:18;101012.16;;;4.90;100.00
71165;BME280;58859;55.132;-1.586;2023-03-15T09:51:54;101011.34;;;6.11;100.00
71165;BME280;58859;55.132;-1.586;2023-03-15T09:57:17;101014.22;;;5.95;100.00
71165;BME280;58859;55.132;-1.586;2023-03-15T09:59:49;101015.81;;;7.12;100.00
71165;BME280;58859;55.132;-1.586;2023-03-15T10:02:24;101017.91;;;6.04;100.00
71165;BME280;58859;55.132;-1.586;2023-03-15T10:04:57;101016.94;;;6.28;100.00
71165;BME280;58859;55.132;-1.586;2023-03-15T10:07:24;101007.47;;;6.16;100.00
71165;BME280;58859;55.132;-1.586;2023-03-15T10:09:50;101017.25;;;6.59;100.00
71165;BME280;58859;55.132;-1.586;2023-03-15T10:12:25;101015.13;;;6.18;100.00
71165;BME280;58859;55.132;-1.586;2023-03-15T10:15:13;101015.81;;;5.11;100.00
71165;BME280;58859;55.132;-1.586;2023-03-15T10:18:06;100996.59;;;5.89;100.00
71165;BME280;58859;55.132;-1.586;2023-03-15T10:20:45;101007.44;;;6.29;100.00
71165;BME280;58859;55.132;-1.586;2023-03-15T10:25:44;101007.44;;;6.97;100.00
71165;BME280;58859;55.132;-1.586;2023-03-15T10:28:23;101013.28;;;6.31;100.00
71165;BME280;58859;55.132;-1.586;2023-03-15T10:30:50;101005.09;;;6.94;100.00
71165;BME280;58859;55.132;-1.586;2023-03-15T10:33:33;101002.34;;;6.62;100.00
71165;BME280;58859;55.132;-1.586;2023-03-15T10:36:07;101005.78;;;6.96;100.00
71165;BME280;58859;55.132;-1.586;2023-03-15T10:38:35;101000.00;;;6.59;100.00
71165;BME280;58859;55.132;-1.586;2023-03-15T10:41:04;100999.94;;;6.94;100.00
71165;BME280;58859;55.132;-1.586;2023-03-15T10:43:32;100992.22;;;8.02;100.00
71165;BME280;58859;55.132;-1.586;2023-03-15T10:46:09;100986.75;;;7.84;100.00
71165;BME280;58859;55.132;-1.586;2023-03-15T10:48:59;100983.72;;;8.11;100.00
71165;BME280;58859;55.132;-1.586;2023-03-15T10:54:06;100996.66;;;7.03;100.00
71165;BME280;58859;55.132;-1.586;2023-03-15T10:56:57;100994.69;;;8.03;100.00
71165;BME280;58859;55.132;-1.586;2023-03-15T10:59:26;100996.56;;;7.70;100.00
71165;BME280;58859;55.132;-1.586;2023-03-15T11:01:54;101002.03;;;7.22;100.00
71165;BME280;58859;55.132;-1.586;2023-03-15T11:04:32;100994.38;;;7.54;100.00
71165;BME280;58859;55.132;-1.586;2023-03-15T11:07:00;100997.91;;;7.42;100.00
71165;BME280;58859;55.132;-1.586;2023-03-15T11:09:37;100975.94;;;8.43;100.00
71165;BME280;58859;55.132;-1.586;2023-03-15T11:12:06;100983.28;;;9.78;100.00
71165;BME280;58859;55.132;-1.586;2023-03-15T11:14:38;100977.69;;;9.23;100.00
71165;BME280;58859;55.132;-1.586;2023-03-15T11:17:05;100966.84;;;10.54;100.00
71165;BME280;58859;55.132;-1.586;2023-03-15T11:19:35;100971.09;;;10.55;100.00
71165;BME280;58859;55.132;-1.586;2023-03-15T11:22:03;100969.38;;;10.83;100.00
71165;BME280;58859;55.132;-1.586;2023-03-15T11:24:30;100964.13;;;10.36;100.00
71165;BME280;58859;55.132;-1.586;2023-03-15T11:27:00;100963.06;;;10.01;100.00
71165;BME280;58859;55.132;-1.586;2023-03-15T11:29:28;100953.13;;;10.62;100.00
71165;BME280;58859;55.132;-1.586;2023-03-15T11:31:57;100945.94;;;10.08;100.00
71165;BME280;58859;55.132;-1.586;2023-03-15T11:36:53;100942.94;;;10.03;100.00
71165;BME280;58859;55.132;-1.586;2023-03-15T11:39:31;100942.47;;;11.91;100.00
71165;BME280;58859;55.132;-1.586;2023-03-15T11:42:03;100937.31;;;10.92;100.00
71165;BME280;58859;55.132;-1.586;2023-03-15T11:44:46;100927.84;;;11.63;100.00
71165;BME280;58859;55.132;-1.586;2023-03-15T11:47:35;100924.91;;;12.71;100.00
71165;BME280;58859;55.132;-1.586;2023-03-15T11:50:03;100934.19;;;12.39;100.00
71165;BME280;58859;55.132;-1.586;2023-03-15T11:52:28;100921.22;;;11.86;100.00
71165;BME280;58859;55.132;-1.586;2023-03-15T11:54:59;100928.03;;;13.58;100.00
71165;BME280;58859;55.132;-1.586;2023-03-15T11:59:55;100928.84;;;13.91;100.00
71165;BME280;58859;55.132;-1.586;2023-03-15T12:04:54;100925.38;;;13.34;100.00
71165;BME280;58859;55.132;-1.586;2023-03-15T12:17:55;100910.09;;;13.95;100.00
71165;BME280;58859;55.132;-1.586;2023-03-15T12:25:50;100901.84;;;13.34;100.00
71165;BME280;58859;55.132;-1.586;2023-03-15T12:28:21;100907.28;;;13.80;100.00
71165;BME280;58859;55.132;-1.586;2023-03-15T12:30:54;100901.22;;;14.28;94.29
71165;BME280;58859;55.132;-1.586;2023-03-15T12:33:22;100892.72;;;14.89;95.00
71165;BME280;58859;55.132;-1.586;2023-03-15T12:35:48;100899.53;;;15.07;87.29
71165;BME280;58859;55.132;-1.586;2023-03-15T12:38:19;100897.47;;;13.42;93.65
71165;BME280;58859;55.132;-1.586;2023-03-15T12:40:56;100888.56;;;12.18;99.51
71165;BME280;58859;55.132;-1.586;2023-03-15T12:43:42;100890.97;;;13.70;98.58
71165;BME280;58859;55.132;-1.586;2023-03-15T12:51:52;100884.06;;;14.89;100.00
71165;BME280;58859;55.132;-1.586;2023-03-15T12:54:19;100873.41;;;15.52;83.65
71165;BME280;58859;55.132;-1.586;2023-03-15T12:56:49;100883.81;;;14.68;95.09
71165;BME280;58859;55.132;-1.586;2023-03-15T12:59:45;100875.13;;;15.06;100.00
71165;BME280;58859;55.132;-1.586;2023-03-15T13:02:24;100875.88;;;13.32;93.31
71165;BME280;58859;55.132;-1.586;2023-03-15T13:04:58;100871.72;;;12.38;100.00
71165;BME280;58859;55.132;-1.586;2023-03-15T13:10:36;100850.22;;;14.16;100.00
71165;BME280;58859;55.132;-1.586;2023-03-15T13:18:33;100845.94;;;13.02;94.59
71165;BME280;58859;55.132;-1.586;2023-03-15T13:21:23;100851.06;;;14.09;100.00
71165;BME280;58859;55.132;-1.586;2023-03-15T13:23:51;100852.84;;;14.24;100.00
71165;BME280;58859;55.132;-1.586;2023-03-15T13:26:30;100848.97;;;13.72;98.91
71165;BME280;58859;55.132;-1.586;2023-03-15T13:29:01;100845.44;;;13.07;100.00
71165;BME280;58859;55.132;-1.586;2023-03-15T13:31:30;100852.38;;;12.82;96.31
71165;BME280;58859;55.132;-1.586;2023-03-15T13:34:10;100850.28;;;13.76;100.00
71165;BME280;58859;55.132;-1.586;2023-03-15T13:36:44;100810.56;;;13.32;90.56
71165;BME280;58859;55.132;-1.586;2023-03-15T13:39:17;100836.81;;;13.14;90.80
71165;BME280;58859;55.132;-1.586;2023-03-15T13:41:48;100844.25;;;13.59;100.00
71165;BME280;58859;55.132;-1.586;2023-03-15T13:44:21;100846.84;;;13.75;87.68